sensor_id;sensor_type;location;lat;lon;timestamp;P1;durP1;ratioP1;P2;durP2;ratioP2
49852;SDS011;35751;48.072;11.688;2022-09-28T00:01:55;2.05;;;0.60;;
49852;SDS011;35751;48.072;11.688;2022-09-28T00:04:20;0.40;;;0.40;;
49852;SDS011;35751;48.072;11.688;2022-09-28T00:06:46;2.95;;;0.70;;
49852;SDS011;35751;48.072;11.688;2022-09-28T00:09:11;0.85;;;0.47;;
49852;SDS011;35751;48.072;11.688;2022-09-28T00:11:37;1.30;;;0.50;;
49852;SDS011;35751;48.072;11.688;2022-09-28T00:14:03;2.45;;;0.95;;
49852;SDS011;35751;48.072;11.688;2022-09-28T00:16:32;1.40;;;0.80;;
49852;SDS011;35751;48.072;11.688;2022-09-28T00:18:59;1.30;;;0.90;;
49852;SDS011;35751;48.072;11.688;2022-09-28T00:21:25;0.95;;;0.80;;
49852;SDS011;35751;48.072;11.688;2022-09-28T00:23:53;1.17;;;1.05;;
49852;SDS011;35751;48.072;11.688;2022-09-28T00:26:43;1.05;;;0.77;;
49852;SDS011;35751;48.072;11.688;2022-09-28T00:29:44;1.92;;;0.80;;
49852;SDS011;35751;48.072;11.688;2022-09-28T00:32:03;1.77;;;0.70;;
49852;SDS011;35751;48.072;11.688;2022-09-28T00:34:29;0.90;;;0.70;;
49852;SDS011;35751;48.072;11.688;2022-09-28T00:36:57;0.80;;;0.70;;
49852;SDS011;35751;48.072;11.688;2022-09-28T00:39:23;1.73;;;0.50;;
49852;SDS011;35751;48.072;11.688;2022-09-28T00:41:51;0.77;;;0.57;;
49852;SDS011;35751;48.072;11.688;2022-09-28T00:44:23;2.55;;;0.50;;
49852;SDS011;35751;48.072;11.688;2022-09-28T00:50:11;0.98;;;0.52;;
49852;SDS011;35751;48.072;11.688;2022-09-28T00:55:16;0.43;;;0.40;;
49852;SDS011;35751;48.072;11.688;2022-09-28T00:57:44;1.35;;;0.60;;
49852;SDS011;35751;48.072;11.688;2022-09-28T01:00:13;0.52;;;0.40;;
49852;SDS011;35751;48.072;11.688;2022-09-28T01:02:39;0.65;;;0.45;;
49852;SDS011;35751;48.072;11.688;2022-09-28T01:05:05;0.93;;;0.50;;
49852;SDS011;35751;48.072;11.688;2022-09-28T01:07:31;1.58;;;0.85;;
49852;SDS011;35751;48.072;11.688;2022-09-28T01:09:58;1.27;;;0.57;;
49852;SDS011;35751;48.072;11.688;2022-09-28T01:12:23;0.77;;;0.50;;
49852;SDS011;35751;48.072;11.688;2022-09-28T01:14:48;3.72;;;0.90;;
49852;SDS011;35751;48.072;11.688;2022-09-28T01:17:15;1.45;;;0.90;;
49852;SDS011;35751;48.072;11.688;2022-09-28T01:19:50;0.70;;;0.52;;
49852;SDS011;35751;48.072;11.688;2022-09-28T01:22:45;1.30;;;0.93;;
49852;SDS011;35751;48.072;11.688;2022-09-28T01:28:30;0.60;;;0.50;;
49852;SDS011;35751;48.072;11.688;2022-09-28T01:33:25;1.52;;;0.40;;
49852;SDS011;35751;48.072;11.688;2022-09-28T01:35:54;1.05;;;0.60;;
49852;SDS011;35751;48.072;11.688;2022-09-28T01:38:27;0.43;;;0.38;;
49852;SDS011;35751;48.072;11.688;2022-09-28T01:40:57;2.00;;;0.60;;
49852;SDS011;35751;48.072;11.688;2022-09-28T01:43:24;1.73;;;0.60;;
49852;SDS011;35751;48.072;11.688;2022-09-28T01:48:23;0.50;;;0.50;;
49852;SDS011;35751;48.072;11.688;2022-09-28T01:50:52;2.38;;;0.57;;
49852;SDS011;35751;48.072;11.688;2022-09-28T01:53:24;0.30;;;0.30;;
49852;SDS011;35751;48.072;11.688;2022-09-28T01:56:00;5.97;;;0.70;;
49852;SDS011;35751;48.072;11.688;2022-09-28T02:01:20;0.75;;;0.40;;
49852;SDS011;35751;48.072;11.688;2022-09-28T02:03:54;0.35;;;0.30;;
49852;SDS011;35751;48.072;11.688;2022-09-28T02:06:31;2.53;;;0.47;;
49852;SDS011;35751;48.072;11.688;2022-09-28T02:09:01;0.40;;;0.40;;
49852;SDS011;35751;48.072;11.688;2022-09-28T02:11:28;0.25;;;0.20;;
49852;SDS011;35751;48.072;11.688;2022-09-28T02:13:55;0.43;;;0.30;;
49852;SDS011;35751;48.072;11.688;2022-09-28T02:16:40;2.60;;;0.52;;
49852;SDS011;35751;48.072;11.688;2022-09-28T02:19:19;0.40;;;0.40;;
49852;SDS011;35751;48.072;11.688;2022-09-28T02:22:00;0.70;;;0.50;;
49852;SDS011;35751;48.072;11.688;2022-09-28T02:24:50;1.05;;;0.40;;
49852;SDS011;35751;48.072;11.688;2022-09-28T02:27:22;1.23;;;0.52;;
49852;SDS011;35751;48.072;11.688;2022-09-28T02:30:05;0.38;;;0.35;;
49852;SDS011;35751;48.072;11.688;2022-09-28T02:32:32;0.30;;;0.30;;
49852;SDS011;35751;48.072;11.688;2022-09-28T02:34:59;0.40;;;0.30;;
49852;SDS011;35751;48.072;11.688;2022-09-28T02:37:25;0.50;;;0.40;;
49852;SDS011;35751;48.072;11.688;2022-09-28T02:39:51;0.30;;;0.30;;
49852;SDS011;35751;48.072;11.688;2022-09-28T02:47:43;0.60;;;0.28;;
49852;SDS011;35751;48.072;11.688;2022-09-28T02:55:57;1.45;;;1.05;;
49852;SDS011;35751;48.072;11.688;2022-09-28T03:01:04;0.30;;;0.30;;
49852;SDS011;35751;48.072;11.688;2022-09-28T03:03:44;0.95;;;0.50;;
49852;SDS011;35751;48.072;11.688;2022-09-28T03:06:14;0.52;;;0.50;;
49852;SDS011;35751;48.072;11.688;2022-09-28T03:08:50;2.03;;;0.30;;
49852;SDS011;35751;48.072;11.688;2022-09-28T03:11:18;0.40;;;0.40;;
49852;SDS011;35751;48.072;11.688;2022-09-28T03:13:46;2.53;;;0.65;;
49852;SDS011;35751;48.072;11.688;2022-09-28T03:16:13;0.65;;;0.40;;
49852;SDS011;35751;48.072;11.688;2022-09-28T03:18:40;0.65;;;0.60;;
49852;SDS011;35751;48.072;11.688;2022-09-28T03:21:05;0.32;;;0.32;;
49852;SDS011;35751;48.072;11.688;2022-09-28T03:23:31;1.95;;;0.50;;
49852;SDS011;35751;48.072;11.688;2022-09-28T03:25:57;0.55;;;0.50;;
49852;SDS011;35751;48.072;11.688;2022-09-28T03:28:23;1.88;;;0.65;;
49852;SDS011;35751;48.072;11.688;2022-09-28T03:30:48;1.45;;;0.77;;
49852;SDS011;35751;48.072;11.688;2022-09-28T03:33:14;0.47;;;0.40;;
49852;SDS011;35751;48.072;11.688;2022-09-28T03:35:39;0.95;;;0.60;;
49852;SDS011;35751;48.072;11.688;2022-09-28T03:38:05;2.53;;;0.60;;
49852;SDS011;35751;48.072;11.688;2022-09-28T03:40:30;0.90;;;0.65;;
49852;SDS011;35751;48.072;11.688;2022-09-28T03:42:55;0.60;;;0.47;;
49852;SDS011;35751;48.072;11.688;2022-09-28T03:45:21;1.85;;;0.60;;
49852;SDS011;35751;48.072;11.688;2022-09-28T03:47:46;1.42;;;0.52;;
49852;SDS011;35751;48.072;11.688;2022-09-28T03:50:12;1.15;;;0.77;;
49852;SDS011;35751;48.072;11.688;2022-09-28T03:52:40;1.02;;;0.55;;
49852;SDS011;35751;48.072;11.688;2022-09-28T03:55:06;0.70;;;0.40;;
49852;SDS011;35751;48.072;11.688;2022-09-28T03:57:31;0.85;;;0.50;;
49852;SDS011;35751;48.072;11.688;2022-09-28T03:59:57;1.55;;;0.40;;
49852;SDS011;35751;48.072;11.688;2022-09-28T04:02:22;0.55;;;0.50;;
49852;SDS011;35751;48.072;11.688;2022-09-28T04:04:48;0.50;;;0.50;;
49852;SDS011;35751;48.072;11.688;2022-09-28T04:07:13;1.48;;;0.70;;
49852;SDS011;35751;48.072;11.688;2022-09-28T04:09:38;0.98;;;0.60;;
49852;SDS011;35751;48.072;11.688;2022-09-28T04:12:04;0.50;;;0.50;;
49852;SDS011;35751;48.072;11.688;2022-09-28T04:14:30;0.47;;;0.45;;
49852;SDS011;35751;48.072;11.688;2022-09-28T04:16:55;0.40;;;0.40;;
49852;SDS011;35751;48.072;11.688;2022-09-28T04:19:20;2.05;;;0.50;;
49852;SDS011;35751;48.072;11.688;2022-09-28T04:21:46;2.03;;;0.73;;
49852;SDS011;35751;48.072;11.688;2022-09-28T04:24:12;1.15;;;0.70;;
49852;SDS011;35751;48.072;11.688;2022-09-28T04:26:38;1.15;;;0.85;;
49852;SDS011;35751;48.072;11.688;2022-09-28T04:29:04;0.82;;;0.60;;
49852;SDS011;35751;48.072;11.688;2022-09-28T04:31:48;0.50;;;0.40;;
49852;SDS011;35751;48.072;11.688;2022-09-28T04:34:14;1.27;;;1.17;;
49852;SDS011;35751;48.072;11.688;2022-09-28T04:36:44;3.33;;;0.60;;
49852;SDS011;35751;48.072;11.688;2022-09-28T04:39:12;2.10;;;0.68;;
49852;SDS011;35751;48.072;11.688;2022-09-28T04:41:39;0.52;;;0.47;;
49852;SDS011;35751;48.072;11.688;2022-09-28T04:44:05;3.50;;;0.90;;
49852;SDS011;35751;48.072;11.688;2022-09-28T04:46:30;0.73;;;0.40;;
49852;SDS011;35751;48.072;11.688;2022-09-28T04:48:56;3.53;;;0.73;;
49852;SDS011;35751;48.072;11.688;2022-09-28T04:51:21;0.68;;;0.50;;
49852;SDS011;35751;48.072;11.688;2022-09-28T04:53:47;2.42;;;0.47;;
49852;SDS011;35751;48.072;11.688;2022-09-28T04:56:15;1.13;;;0.70;;
49852;SDS011;35751;48.072;11.688;2022-09-28T04:58:41;2.13;;;0.50;;
49852;SDS011;35751;48.072;11.688;2022-09-28T05:01:07;1.35;;;0.73;;
49852;SDS011;35751;48.072;11.688;2022-09-28T05:03:35;1.42;;;0.50;;
49852;SDS011;35751;48.072;11.688;2022-09-28T05:06:00;1.17;;;0.60;;
49852;SDS011;35751;48.072;11.688;2022-09-28T05:08:26;4.03;;;0.93;;
49852;SDS011;35751;48.072;11.688;2022-09-28T05:10:58;1.98;;;0.88;;
49852;SDS011;35751;48.072;11.688;2022-09-28T05:13:27;1.23;;;1.15;;
49852;SDS011;35751;48.072;11.688;2022-09-28T05:15:54;1.05;;;0.80;;
49852;SDS011;35751;48.072;11.688;2022-09-28T05:18:20;4.75;;;0.73;;
49852;SDS011;35751;48.072;11.688;2022-09-28T05:20:46;1.33;;;0.93;;
49852;SDS011;35751;48.072;11.688;2022-09-28T05:23:11;1.25;;;0.80;;
49852;SDS011;35751;48.072;11.688;2022-09-28T05:25:38;1.58;;;1.15;;
49852;SDS011;35751;48.072;11.688;2022-09-28T05:28:04;1.42;;;0.73;;
49852;SDS011;35751;48.072;11.688;2022-09-28T05:30:30;0.98;;;0.65;;
49852;SDS011;35751;48.072;11.688;2022-09-28T05:32:55;1.20;;;0.52;;
49852;SDS011;35751;48.072;11.688;2022-09-28T05:35:20;0.90;;;0.80;;
49852;SDS011;35751;48.072;11.688;2022-09-28T05:37:46;3.72;;;0.77;;
49852;SDS011;35751;48.072;11.688;2022-09-28T05:40:12;1.13;;;0.80;;
49852;SDS011;35751;48.072;11.688;2022-09-28T05:42:37;1.25;;;1.05;;
49852;SDS011;35751;48.072;11.688;2022-09-28T05:45:03;2.55;;;1.00;;
49852;SDS011;35751;48.072;11.688;2022-09-28T05:47:29;1.83;;;1.23;;
49852;SDS011;35751;48.072;11.688;2022-09-28T05:49:54;2.75;;;1.60;;
49852;SDS011;35751;48.072;11.688;2022-09-28T05:52:20;1.52;;;1.42;;
49852;SDS011;35751;48.072;11.688;2022-09-28T05:54:45;1.70;;;1.00;;
49852;SDS011;35751;48.072;11.688;2022-09-28T05:57:11;2.55;;;0.90;;
49852;SDS011;35751;48.072;11.688;2022-09-28T05:59:37;3.72;;;0.90;;
49852;SDS011;35751;48.072;11.688;2022-09-28T06:02:03;6.07;;;1.63;;
49852;SDS011;35751;48.072;11.688;2022-09-28T06:04:28;2.13;;;1.02;;
49852;SDS011;35751;48.072;11.688;2022-09-28T06:06:54;4.70;;;1.20;;
49852;SDS011;35751;48.072;11.688;2022-09-28T06:09:20;2.85;;;1.40;;
49852;SDS011;35751;48.072;11.688;2022-09-28T06:11:47;7.32;;;2.40;;
49852;SDS011;35751;48.072;11.688;2022-09-28T06:14:13;4.10;;;1.55;;
49852;SDS011;35751;48.072;11.688;2022-09-28T06:16:38;2.05;;;1.15;;
49852;SDS011;35751;48.072;11.688;2022-09-28T06:19:04;3.53;;;1.50;;
49852;SDS011;35751;48.072;11.688;2022-09-28T06:21:30;7.45;;;2.00;;
49852;SDS011;35751;48.072;11.688;2022-09-28T06:23:55;4.82;;;2.28;;
49852;SDS011;35751;48.072;11.688;2022-09-28T06:26:20;5.78;;;2.00;;
49852;SDS011;35751;48.072;11.688;2022-09-28T06:28:46;5.60;;;1.52;;
49852;SDS011;35751;48.072;11.688;2022-09-28T06:31:11;3.47;;;1.45;;
49852;SDS011;35751;48.072;11.688;2022-09-28T06:33:37;1.58;;;0.90;;
49852;SDS011;35751;48.072;11.688;2022-09-28T06:36:02;4.82;;;1.33;;
49852;SDS011;35751;48.072;11.688;2022-09-28T06:38:28;2.88;;;1.50;;
49852;SDS011;35751;48.072;11.688;2022-09-28T06:40:55;1.52;;;1.30;;
49852;SDS011;35751;48.072;11.688;2022-09-28T06:43:20;1.33;;;1.00;;
49852;SDS011;35751;48.072;11.688;2022-09-28T06:45:49;1.88;;;1.00;;
49852;SDS011;35751;48.072;11.688;2022-09-28T06:48:15;1.88;;;0.95;;
49852;SDS011;35751;48.072;11.688;2022-09-28T06:50:41;1.42;;;0.80;;
49852;SDS011;35751;48.072;11.688;2022-09-28T06:53:08;0.80;;;0.73;;
49852;SDS011;35751;48.072;11.688;2022-09-28T06:55:42;2.53;;;0.70;;
49852;SDS011;35751;48.072;11.688;2022-09-28T06:58:10;8.93;;;1.27;;
49852;SDS011;35751;48.072;11.688;2022-09-28T07:00:37;2.30;;;0.90;;
49852;SDS011;35751;48.072;11.688;2022-09-28T07:03:04;1.35;;;0.77;;
49852;SDS011;35751;48.072;11.688;2022-09-28T07:05:35;1.58;;;1.00;;
49852;SDS011;35751;48.072;11.688;2022-09-28T07:08:04;2.50;;;1.02;;
49852;SDS011;35751;48.072;11.688;2022-09-28T07:10:29;2.97;;;1.13;;
49852;SDS011;35751;48.072;11.688;2022-09-28T07:12:56;2.03;;;1.30;;
49852;SDS011;35751;48.072;11.688;2022-09-28T07:15:23;2.00;;;0.85;;
49852;SDS011;35751;48.072;11.688;2022-09-28T07:17:48;2.47;;;1.20;;
49852;SDS011;35751;48.072;11.688;2022-09-28T07:20:14;1.77;;;1.10;;
49852;SDS011;35751;48.072;11.688;2022-09-28T07:22:39;0.93;;;0.85;;
49852;SDS011;35751;48.072;11.688;2022-09-28T07:25:05;1.65;;;1.13;;
49852;SDS011;35751;48.072;11.688;2022-09-28T07:27:31;3.08;;;0.93;;
49852;SDS011;35751;48.072;11.688;2022-09-28T07:29:57;3.17;;;1.02;;
49852;SDS011;35751;48.072;11.688;2022-09-28T07:32:22;2.65;;;1.10;;
49852;SDS011;35751;48.072;11.688;2022-09-28T07:34:48;3.38;;;1.00;;
49852;SDS011;35751;48.072;11.688;2022-09-28T07:37:14;1.80;;;1.08;;
49852;SDS011;35751;48.072;11.688;2022-09-28T07:39:40;2.63;;;1.13;;
49852;SDS011;35751;48.072;11.688;2022-09-28T07:42:24;1.95;;;1.13;;
49852;SDS011;35751;48.072;11.688;2022-09-28T07:44:54;2.25;;;1.23;;
49852;SDS011;35751;48.072;11.688;2022-09-28T07:47:20;1.35;;;0.93;;
49852;SDS011;35751;48.072;11.688;2022-09-28T07:49:51;1.45;;;0.98;;
49852;SDS011;35751;48.072;11.688;2022-09-28T07:52:18;1.52;;;0.80;;
49852;SDS011;35751;48.072;11.688;2022-09-28T07:54:44;1.00;;;0.80;;
49852;SDS011;35751;48.072;11.688;2022-09-28T07:57:11;1.33;;;0.82;;
49852;SDS011;35751;48.072;11.688;2022-09-28T07:59:36;1.42;;;0.82;;
49852;SDS011;35751;48.072;11.688;2022-09-28T08:02:01;0.95;;;0.68;;
49852;SDS011;35751;48.072;11.688;2022-09-28T08:04:26;0.93;;;0.68;;
49852;SDS011;35751;48.072;11.688;2022-09-28T08:06:54;0.80;;;0.80;;
49852;SDS011;35751;48.072;11.688;2022-09-28T08:09:19;1.35;;;0.50;;
49852;SDS011;35751;48.072;11.688;2022-09-28T08:11:44;1.90;;;0.80;;
49852;SDS011;35751;48.072;11.688;2022-09-28T08:14:09;0.47;;;0.47;;
49852;SDS011;35751;48.072;11.688;2022-09-28T08:16:35;0.82;;;0.73;;
49852;SDS011;35751;48.072;11.688;2022-09-28T08:19:00;1.83;;;0.80;;
49852;SDS011;35751;48.072;11.688;2022-09-28T08:21:26;0.88;;;0.70;;
49852;SDS011;35751;48.072;11.688;2022-09-28T08:24:10;0.60;;;0.60;;
49852;SDS011;35751;48.072;11.688;2022-09-28T08:26:36;0.38;;;0.38;;
49852;SDS011;35751;48.072;11.688;2022-09-28T08:29:01;1.05;;;0.50;;
49852;SDS011;35751;48.072;11.688;2022-09-28T08:31:27;2.55;;;0.70;;
49852;SDS011;35751;48.072;11.688;2022-09-28T08:33:52;0.50;;;0.50;;
49852;SDS011;35751;48.072;11.688;2022-09-28T08:36:18;2.60;;;0.77;;
49852;SDS011;35751;48.072;11.688;2022-09-28T08:38:44;1.80;;;0.65;;
49852;SDS011;35751;48.072;11.688;2022-09-28T08:46:18;1.17;;;0.98;;
49852;SDS011;35751;48.072;11.688;2022-09-28T08:48:51;0.80;;;0.77;;
49852;SDS011;35751;48.072;11.688;2022-09-28T08:51:21;2.28;;;0.90;;
49852;SDS011;35751;48.072;11.688;2022-09-28T08:56:43;1.95;;;0.85;;
49852;SDS011;35751;48.072;11.688;2022-09-28T08:59:16;2.28;;;0.73;;
49852;SDS011;35751;48.072;11.688;2022-09-28T09:01:45;2.30;;;0.50;;
49852;SDS011;35751;48.072;11.688;2022-09-28T09:04:13;0.93;;;0.40;;
49852;SDS011;35751;48.072;11.688;2022-09-28T09:06:49;0.88;;;0.50;;
49852;SDS011;35751;48.072;11.688;2022-09-28T09:17:46;0.98;;;0.30;;
49852;SDS011;35751;48.072;11.688;2022-09-28T09:23:11;0.55;;;0.40;;
49852;SDS011;35751;48.072;11.688;2022-09-28T09:25:41;0.60;;;0.30;;
49852;SDS011;35751;48.072;11.688;2022-09-28T09:34:03;0.30;;;0.30;;
49852;SDS011;35751;48.072;11.688;2022-09-28T09:39:38;0.50;;;0.40;;
49852;SDS011;35751;48.072;11.688;2022-09-28T09:47:30;1.60;;;0.30;;
49852;SDS011;35751;48.072;11.688;2022-09-28T09:52:52;0.22;;;0.22;;
49852;SDS011;35751;48.072;11.688;2022-09-28T09:55:23;3.10;;;0.73;;
49852;SDS011;35751;48.072;11.688;2022-09-28T09:57:53;2.30;;;0.98;;
49852;SDS011;35751;48.072;11.688;2022-09-28T10:00:24;0.82;;;0.63;;
49852;SDS011;35751;48.072;11.688;2022-09-28T10:02:49;1.95;;;0.50;;
49852;SDS011;35751;48.072;11.688;2022-09-28T10:05:22;1.05;;;0.77;;
49852;SDS011;35751;48.072;11.688;2022-09-28T10:07:53;1.23;;;0.70;;
49852;SDS011;35751;48.072;11.688;2022-09-28T10:10:25;1.48;;;0.75;;
49852;SDS011;35751;48.072;11.688;2022-09-28T10:12:52;1.33;;;0.98;;
49852;SDS011;35751;48.072;11.688;2022-09-28T10:15:22;2.17;;;1.08;;
49852;SDS011;35751;48.072;11.688;2022-09-28T10:17:49;1.52;;;0.98;;
49852;SDS011;35751;48.072;11.688;2022-09-28T10:20:15;1.05;;;0.90;;
49852;SDS011;35751;48.072;11.688;2022-09-28T10:22:41;1.25;;;1.13;;
49852;SDS011;35751;48.072;11.688;2022-09-28T10:25:08;2.13;;;1.08;;
49852;SDS011;35751;48.072;11.688;2022-09-28T10:27:34;2.67;;;1.92;;
49852;SDS011;35751;48.072;11.688;2022-09-28T10:32:36;1.20;;;0.90;;
49852;SDS011;35751;48.072;11.688;2022-09-28T10:35:38;1.30;;;1.20;;
49852;SDS011;35751;48.072;11.688;2022-09-28T10:46:10;1.40;;;1.05;;
49852;SDS011;35751;48.072;11.688;2022-09-28T10:48:47;1.02;;;0.75;;
49852;SDS011;35751;48.072;11.688;2022-09-28T10:51:14;3.95;;;1.27;;
49852;SDS011;35751;48.072;11.688;2022-09-28T10:53:40;0.52;;;0.45;;
49852;SDS011;35751;48.072;11.688;2022-09-28T10:56:06;1.15;;;0.68;;
49852;SDS011;35751;48.072;11.688;2022-09-28T10:58:43;1.98;;;0.60;;
49852;SDS011;35751;48.072;11.688;2022-09-28T11:01:19;1.30;;;0.50;;
49852;SDS011;35751;48.072;11.688;2022-09-28T11:03:57;1.00;;;0.50;;
49852;SDS011;35751;48.072;11.688;2022-09-28T11:06:28;1.13;;;0.70;;
49852;SDS011;35751;48.072;11.688;2022-09-28T11:09:05;2.97;;;1.15;;
49852;SDS011;35751;48.072;11.688;2022-09-28T11:11:42;0.77;;;0.60;;
49852;SDS011;35751;48.072;11.688;2022-09-28T11:14:41;0.80;;;0.68;;
49852;SDS011;35751;48.072;11.688;2022-09-28T11:17:16;1.67;;;0.77;;
49852;SDS011;35751;48.072;11.688;2022-09-28T11:19:41;0.65;;;0.57;;
49852;SDS011;35751;48.072;11.688;2022-09-28T11:24:50;1.02;;;0.93;;
49852;SDS011;35751;48.072;11.688;2022-09-28T11:27:20;1.10;;;0.70;;
49852;SDS011;35751;48.072;11.688;2022-09-28T11:29:54;0.50;;;0.50;;
49852;SDS011;35751;48.072;11.688;2022-09-28T11:32:24;0.50;;;0.50;;
49852;SDS011;35751;48.072;11.688;2022-09-28T11:34:52;0.47;;;0.30;;
49852;SDS011;35751;48.072;11.688;2022-09-28T11:42:52;1.02;;;0.60;;
49852;SDS011;35751;48.072;11.688;2022-09-28T11:48:04;1.98;;;0.80;;
49852;SDS011;35751;48.072;11.688;2022-09-28T11:50:49;1.58;;;1.17;;
49852;SDS011;35751;48.072;11.688;2022-09-28T11:54:21;3.05;;;1.48;;
49852;SDS011;35751;48.072;11.688;2022-09-28T11:58:53;2.38;;;1.02;;
49852;SDS011;35751;48.072;11.688;2022-09-28T12:04:12;4.68;;;1.90;;
49852;SDS011;35751;48.072;11.688;2022-09-28T12:06:49;2.38;;;1.90;;
49852;SDS011;35751;48.072;11.688;2022-09-28T12:12:22;1.77;;;0.90;;
49852;SDS011;35751;48.072;11.688;2022-09-28T12:14:51;1.77;;;0.93;;
49852;SDS011;35751;48.072;11.688;2022-09-28T12:17:22;7.78;;;5.07;;
49852;SDS011;35751;48.072;11.688;2022-09-28T12:19:58;1.45;;;0.77;;
49852;SDS011;35751;48.072;11.688;2022-09-28T12:25:16;1.52;;;0.80;;
49852;SDS011;35751;48.072;11.688;2022-09-28T12:27:46;3.22;;;0.75;;
49852;SDS011;35751;48.072;11.688;2022-09-28T12:30:21;1.55;;;1.30;;
49852;SDS011;35751;48.072;11.688;2022-09-28T12:38:52;1.75;;;1.33;;
49852;SDS011;35751;48.072;11.688;2022-09-28T12:46:43;7.18;;;4.35;;
49852;SDS011;35751;48.072;11.688;2022-09-28T12:49:32;1.23;;;1.05;;
49852;SDS011;35751;48.072;11.688;2022-09-28T12:52:14;1.20;;;1.10;;
49852;SDS011;35751;48.072;11.688;2022-09-28T12:55:08;1.25;;;1.05;;
49852;SDS011;35751;48.072;11.688;2022-09-28T13:00:09;1.48;;;1.38;;
49852;SDS011;35751;48.072;11.688;2022-09-28T13:08:08;2.90;;;0.90;;
49852;SDS011;35751;48.072;11.688;2022-09-28T13:13:55;1.13;;;0.82;;
49852;SDS011;35751;48.072;11.688;2022-09-28T13:16:32;1.20;;;1.00;;
49852;SDS011;35751;48.072;11.688;2022-09-28T13:24:22;1.60;;;0.90;;
49852;SDS011;35751;48.072;11.688;2022-09-28T13:26:51;1.05;;;0.80;;
49852;SDS011;35751;48.072;11.688;2022-09-28T13:29:18;1.15;;;0.93;;
49852;SDS011;35751;48.072;11.688;2022-09-28T13:31:52;0.50;;;0.50;;
49852;SDS011;35751;48.072;11.688;2022-09-28T13:34:28;0.50;;;0.40;;
49852;SDS011;35751;48.072;11.688;2022-09-28T13:50:34;4.82;;;2.38;;
49852;SDS011;35751;48.072;11.688;2022-09-28T13:58:46;7.38;;;4.22;;
49852;SDS011;35751;48.072;11.688;2022-09-28T14:01:15;4.28;;;2.40;;
49852;SDS011;35751;48.072;11.688;2022-09-28T14:06:36;4.15;;;3.00;;
49852;SDS011;35751;48.072;11.688;2022-09-28T14:16:25;6.18;;;3.22;;
49852;SDS011;35751;48.072;11.688;2022-09-28T14:18:56;7.43;;;4.50;;
49852;SDS011;35751;48.072;11.688;2022-09-28T14:29:30;9.85;;;5.63;;
49852;SDS011;35751;48.072;11.688;2022-09-28T14:32:03;3.00;;;2.22;;
49852;SDS011;35751;48.072;11.688;2022-09-28T14:34:34;6.93;;;3.92;;
49852;SDS011;35751;48.072;11.688;2022-09-28T14:37:04;2.83;;;1.80;;
49852;SDS011;35751;48.072;11.688;2022-09-28T14:40:14;3.38;;;2.15;;
49852;SDS011;35751;48.072;11.688;2022-09-28T14:43:17;3.28;;;2.05;;
49852;SDS011;35751;48.072;11.688;2022-09-28T14:45:44;4.22;;;2.60;;
49852;SDS011;35751;48.072;11.688;2022-09-28T14:48:13;2.60;;;1.92;;
49852;SDS011;35751;48.072;11.688;2022-09-28T14:50:42;4.70;;;2.78;;
49852;SDS011;35751;48.072;11.688;2022-09-28T14:53:11;3.95;;;1.85;;
49852;SDS011;35751;48.072;11.688;2022-09-28T14:55:59;5.38;;;2.92;;
49852;SDS011;35751;48.072;11.688;2022-09-28T14:58:25;5.07;;;2.67;;
49852;SDS011;35751;48.072;11.688;2022-09-28T15:00:54;3.80;;;2.10;;
49852;SDS011;35751;48.072;11.688;2022-09-28T15:03:22;4.57;;;2.65;;
49852;SDS011;35751;48.072;11.688;2022-09-28T15:05:48;4.10;;;2.10;;
49852;SDS011;35751;48.072;11.688;2022-09-28T15:08:14;3.35;;;1.70;;
49852;SDS011;35751;48.072;11.688;2022-09-28T15:10:45;5.47;;;1.80;;
49852;SDS011;35751;48.072;11.688;2022-09-28T15:15:52;11.00;;;6.00;;
49852;SDS011;35751;48.072;11.688;2022-09-28T15:18:25;5.95;;;3.03;;
49852;SDS011;35751;48.072;11.688;2022-09-28T15:20:52;3.72;;;3.00;;
49852;SDS011;35751;48.072;11.688;2022-09-28T15:23:25;3.05;;;2.28;;
49852;SDS011;35751;48.072;11.688;2022-09-28T15:26:03;5.95;;;2.92;;
49852;SDS011;35751;48.072;11.688;2022-09-28T15:28:34;6.82;;;5.32;;
49852;SDS011;35751;48.072;11.688;2022-09-28T15:31:01;5.22;;;3.70;;
49852;SDS011;35751;48.072;11.688;2022-09-28T15:33:29;6.85;;;5.20;;
49852;SDS011;35751;48.072;11.688;2022-09-28T15:38:56;3.65;;;2.63;;
49852;SDS011;35751;48.072;11.688;2022-09-28T15:41:27;3.72;;;2.03;;
49852;SDS011;35751;48.072;11.688;2022-09-28T15:46:32;11.25;;;9.25;;
49852;SDS011;35751;48.072;11.688;2022-09-28T15:48:59;5.18;;;3.70;;
49852;SDS011;35751;48.072;11.688;2022-09-28T15:51:25;4.43;;;2.80;;
49852;SDS011;35751;48.072;11.688;2022-09-28T15:59:26;4.57;;;2.22;;
49852;SDS011;35751;48.072;11.688;2022-09-28T16:02:14;6.45;;;2.30;;
49852;SDS011;35751;48.072;11.688;2022-09-28T16:09:52;2.40;;;2.00;;
49852;SDS011;35751;48.072;11.688;2022-09-28T16:12:18;5.20;;;3.05;;
49852;SDS011;35751;48.072;11.688;2022-09-28T16:14:46;3.03;;;2.65;;
49852;SDS011;35751;48.072;11.688;2022-09-28T16:17:25;4.63;;;2.88;;
49852;SDS011;35751;48.072;11.688;2022-09-28T16:22:51;3.75;;;3.05;;
49852;SDS011;35751;48.072;11.688;2022-09-28T16:25:18;6.65;;;2.50;;
49852;SDS011;35751;48.072;11.688;2022-09-28T16:27:47;3.85;;;2.60;;
49852;SDS011;35751;48.072;11.688;2022-09-28T16:30:18;4.03;;;3.08;;
49852;SDS011;35751;48.072;11.688;2022-09-28T16:32:57;4.45;;;3.15;;
49852;SDS011;35751;48.072;11.688;2022-09-28T16:38:13;4.13;;;3.38;;
49852;SDS011;35751;48.072;11.688;2022-09-28T16:40:39;5.05;;;3.97;;
49852;SDS011;35751;48.072;11.688;2022-09-28T16:43:06;6.65;;;3.95;;
49852;SDS011;35751;48.072;11.688;2022-09-28T16:45:33;6.30;;;3.58;;
49852;SDS011;35751;48.072;11.688;2022-09-28T16:47:59;3.67;;;2.70;;
49852;SDS011;35751;48.072;11.688;2022-09-28T16:50:25;6.70;;;4.72;;
49852;SDS011;35751;48.072;11.688;2022-09-28T16:53:01;4.18;;;3.58;;
49852;SDS011;35751;48.072;11.688;2022-09-28T16:55:54;6.88;;;3.13;;
49852;SDS011;35751;48.072;11.688;2022-09-28T16:58:19;8.48;;;3.30;;
49852;SDS011;35751;48.072;11.688;2022-09-28T17:00:46;6.07;;;3.22;;
49852;SDS011;35751;48.072;11.688;2022-09-28T17:03:12;4.70;;;3.90;;
49852;SDS011;35751;48.072;11.688;2022-09-28T17:05:38;5.55;;;4.35;;
49852;SDS011;35751;48.072;11.688;2022-09-28T17:08:04;4.57;;;3.00;;
49852;SDS011;35751;48.072;11.688;2022-09-28T17:10:34;8.57;;;3.30;;
49852;SDS011;35751;48.072;11.688;2022-09-28T17:13:01;8.35;;;3.38;;
49852;SDS011;35751;48.072;11.688;2022-09-28T17:15:26;5.65;;;3.30;;
49852;SDS011;35751;48.072;11.688;2022-09-28T17:17:52;5.05;;;3.10;;
49852;SDS011;35751;48.072;11.688;2022-09-28T17:20:21;6.90;;;4.03;;
49852;SDS011;35751;48.072;11.688;2022-09-28T17:22:48;6.03;;;3.58;;
49852;SDS011;35751;48.072;11.688;2022-09-28T17:25:14;8.50;;;4.57;;
49852;SDS011;35751;48.072;11.688;2022-09-28T17:27:41;8.80;;;4.70;;
49852;SDS011;35751;48.072;11.688;2022-09-28T17:30:08;8.00;;;5.22;;
49852;SDS011;35751;48.072;11.688;2022-09-28T17:32:35;7.07;;;4.05;;
49852;SDS011;35751;48.072;11.688;2022-09-28T17:35:01;7.38;;;4.75;;
49852;SDS011;35751;48.072;11.688;2022-09-28T17:37:27;6.93;;;4.47;;
49852;SDS011;35751;48.072;11.688;2022-09-28T17:39:52;6.78;;;4.30;;
49852;SDS011;35751;48.072;11.688;2022-09-28T17:42:17;6.03;;;3.80;;
49852;SDS011;35751;48.072;11.688;2022-09-28T17:44:43;8.15;;;4.22;;
49852;SDS011;35751;48.072;11.688;2022-09-28T17:47:08;6.35;;;4.65;;
49852;SDS011;35751;48.072;11.688;2022-09-28T17:49:34;5.80;;;3.47;;
49852;SDS011;35751;48.072;11.688;2022-09-28T17:52:00;5.55;;;4.28;;
49852;SDS011;35751;48.072;11.688;2022-09-28T17:54:25;5.05;;;3.00;;
49852;SDS011;35751;48.072;11.688;2022-09-28T17:56:51;5.45;;;3.00;;